sensor_id;sensor_type;location;lat;lon;timestamp;pressure;altitude;pressure_sealevel;temperature
77385;BMP280;66444;49.680;18.538;2023-03-31T00:04:11;96835.11674348255;;;11.005754614807666
77385;BMP280;66444;49.680;18.538;2023-03-31T00:09:19;96842.68799717286;;;10.985408129822464
77385;BMP280;66444;49.680;18.538;2023-03-31T00:14:26;96842.57770541821;;;10.914194698957726
77385;BMP280;66444;49.680;18.538;2023-03-31T00:19:33;96835.6088380459;;;10.832806523842738
77385;BMP280;66444;49.680;18.538;2023-03-31T00:24:41;96827.87091118902;;;10.746329955058172
77385;BMP280;66444;49.680;18.538;2023-03-31T00:29:53;96841.34691492945;;;10.6242425235454
77385;BMP280;66444;49.680;18.538;2023-03-31T00:35:00;96833.18847504095;;;10.517413270659745
77385;BMP280;66444;49.680;18.538;2023-03-31T00:40:12;96861.47497261167;;;10.405494157271459
77385;BMP280;66444;49.680;18.538;2023-03-31T00:45:20;96847.63861527249;;;10.313921878114343
77385;BMP280;66444;49.680;18.538;2023-03-31T00:50:31;96848.91198861063;;;10.181647478742525
77385;BMP280;66444;49.680;18.538;2023-03-31T00:55:44;96841.50684577622;;;10.079895263211801
77385;BMP280;66444;49.680;18.538;2023-03-31T01:00:54;96830.67456883616;;;9.97305293106474
77385;BMP280;66444;49.680;18.538;2023-03-31T01:06:09;96829.62486491483;;;9.825504538044333
77385;BMP280;66444;49.680;18.538;2023-03-31T01:11:18;96833.18096340384;;;9.708479917934165
77385;BMP280;66444;49.680;18.538;2023-03-31T01:16:28;96836.45751298494;;;9.642334205377846
77385;BMP280;66444;49.680;18.538;2023-03-31T01:23:51;96845.38744528528;;;9.560922747198493
77385;BMP280;66444;49.680;18.538;2023-03-31T01:29:22;96842.84831393666;;;9.438802765961736
77385;BMP280;66444;49.680;18.538;2023-03-31T01:34:51;96839.2683683083;;;9.362476075114682
77385;BMP280;66444;49.680;18.538;2023-03-31T01:40:20;96837.22584760428;;;9.29632521700114
77385;BMP280;66444;49.680;18.538;2023-03-31T01:45:42;96846.98944626226;;;9.255616507679225
77385;BMP280;66444;49.680;18.538;2023-03-31T01:51:00;96829.45069953191;;;9.209818764403462
77385;BMP280;66444;49.680;18.538;2023-03-31T01:56:14;96827.99196672728;;;9.235262013319879
77385;BMP280;66444;49.680;18.538;2023-03-31T02:01:26;96820.45690968898;;;9.255616507679225
77385;BMP280;66444;49.680;18.538;2023-03-31T02:06:40;96824.30391082924;;;9.281059494661168
77385;BMP280;66444;49.680;18.538;2023-03-31T02:11:52;96812.84239099121;;;9.240350645640865
77385;BMP280;66444;49.680;18.538;2023-03-31T02:17:03;96810.53436837807;;;9.225084731215611
77385;BMP280;66444;49.680;18.538;2023-03-31T02:22:12;96818.06909043163;;;9.204730097157881
77385;BMP280;66444;49.680;18.538;2023-03-31T02:27:24;96816.45001903124;;;9.15893183001317
77385;BMP280;66444;49.680;18.538;2023-03-31T02:32:36;96824.06415328389;;;9.174197971448303
77385;BMP280;66444;49.680;18.538;2023-03-31T02:37:45;96812.76305674893;;;9.204730097157881
77385;BMP280;66444;49.680;18.538;2023-03-31T02:42:53;96815.57452049901;;;9.275970908906311
77385;BMP280;66444;49.680;18.538;2023-03-31T02:48:00;96804.2698425906;;;9.306502336123959
77385;BMP280;66444;49.680;18.538;2023-03-31T02:53:08;96804.5375043539;;;9.255616507679225
77385;BMP280;66444;49.680;18.538;2023-03-31T02:58:33;96794.07904395042;;;9.326856504520402
77385;BMP280;66444;49.680;18.538;2023-03-31T03:03:54;96787.53541138675;;;9.459156328998507
77385;BMP280;66444;49.680;18.538;2023-03-31T03:09:15;96785.44950691817;;;9.550746210152283
77385;BMP280;66444;49.680;18.538;2023-03-31T03:14:34;96782.51906337615;;;9.601628662552685
77385;BMP280;66444;49.680;18.538;2023-03-31T03:19:49;96775.67224072131;;;9.591452218638732
77385;BMP280;66444;49.680;18.538;2023-03-31T03:24:59;96773.43760795299;;;9.611805083183572
77385;BMP280;66444;49.680;18.538;2023-03-31T03:30:13;96769.66539007556;;;9.621981480531394
77385;BMP280;66444;49.680;18.538;2023-03-31T03:35:20;96756.11180898934;;;9.672863118024543
77385;BMP280;66444;49.680;18.538;2023-03-31T03:40:29;96757.50921810156;;;9.611805083183572
77385;BMP280;66444;49.680;18.538;2023-03-31T03:45:37;96742.27971235853;;;9.581275751441718
77385;BMP280;66444;49.680;18.538;2023-03-31T03:50:44;96734.24631830791;;;9.54565793289803
77385;BMP280;66444;49.680;18.538;2023-03-31T03:55:51;96747.518433357;;;9.54565793289803
77385;BMP280;66444;49.680;18.538;2023-03-31T04:00:57;96744.51497984274;;;9.560922747198493
77385;BMP280;66444;49.680;18.538;2023-03-31T04:06:04;96750.52164185124;;;9.530393066210673
77385;BMP280;66444;49.680;18.538;2023-03-31T04:11:10;96751.21885012242;;;9.499863175675273
77385;BMP280;66444;49.680;18.538;2023-03-31T04:16:17;96748.42065505043;;;9.428625949518755
77385;BMP280;66444;49.680;18.538;2023-03-31T04:21:23;96750.15948639683;;;9.352299084048719
77385;BMP280;66444;49.680;18.538;2023-03-31T04:26:29;96740.31374129753;;;9.357387582492084
77385;BMP280;66444;49.680;18.538;2023-03-31T04:31:36;96726.62523721927;;;9.337033553794026
77385;BMP280;66444;49.680;18.538;2023-03-31T04:36:42;96719.85338991739;;;9.362476075114682
77385;BMP280;66444;49.680;18.538;2023-03-31T04:41:49;96719.92496672554;;;9.398095360491425
77385;BMP280;66444;49.680;18.538;2023-03-31T04:46:54;96718.59990365675;;;9.494774840213358
77385;BMP280;66444;49.680;18.538;2023-03-31T04:52:00;96726.63244797254;;;9.530393066210673
77385;BMP280;66444;49.680;18.538;2023-03-31T04:57:06;96718.38860575372;;;9.581275751441718
77385;BMP280;66444;49.680;18.538;2023-03-31T05:02:11;96708.18832599171;;;9.601628662552685
77385;BMP280;66444;49.680;18.538;2023-03-31T05:07:16;96690.08905902087;;;9.657598687894643
77385;BMP280;66444;49.680;18.538;2023-03-31T05:12:22;96690.98724317354;;;9.733920314675197
77385;BMP280;66444;49.680;18.538;2023-03-31T05:17:29;96694.05867992264;;;9.754272527294233
77385;BMP280;66444;49.680;18.538;2023-03-31T05:22:36;96692.23526631753;;;9.794976673135533
77385;BMP280;66444;49.680;18.538;2023-03-31T05:27:42;96688.93824136638;;;9.861120115593076
77385;BMP280;66444;49.680;18.538;2023-03-31T05:32:48;96686.23405610649;;;10.05445684553124
77385;BMP280;66444;49.680;18.538;2023-03-31T05:37:53;96686.52504206935;;;10.232522713392973
77385;BMP280;66444;49.680;18.538;2023-03-31T05:42:58;96688.22780723956;;;10.349533544108272
77385;BMP280;66444;49.680;18.538;2023-03-31T05:48:03;96676.3287149463;;;10.517413270659745
77385;BMP280;66444;49.680;18.538;2023-03-31T05:53:09;96662.92627703391;;;10.710721467202529
77385;BMP280;66444;49.680;18.538;2023-03-31T05:58:14;96669.33900253936;;;10.965061551705002
77385;BMP280;66444;49.680;18.538;2023-03-31T06:03:19;96671.85589789289;;;11.158350283605978
77385;BMP280;66444;49.680;18.538;2023-03-31T06:08:24;96665.96939362174;;;11.331285708583891
77385;BMP280;66444;49.680;18.538;2023-03-31T06:13:29;96670.71821226175;;;11.504214404756203
77385;BMP280;66444;49.680;18.538;2023-03-31T06:18:40;96663.93262594072;;;11.565246455697343
77385;BMP280;66444;49.680;18.538;2023-03-31T06:23:45;96662.47083352991;;;11.626277668448164
77385;BMP280;66444;49.680;18.538;2023-03-31T06:28:51;96658.01012962466;;;11.738166048191488
77385;BMP280;66444;49.680;18.538;2023-03-31T06:33:56;96649.77499694662;;;11.895822165161372
77385;BMP280;66444;49.680;18.538;2023-03-31T06:39:01;96651.44772198604;;;12.083985046762972
77385;BMP280;66444;49.680;18.538;2023-03-31T06:44:07;96650.78616006038;;;12.221288066357374
77385;BMP280;66444;49.680;18.538;2023-03-31T06:49:12;96649.35117712802;;;12.353501778421924
77385;BMP280;66444;49.680;18.538;2023-03-31T06:54:17;96650.98840933367;;;12.54164527687244
77385;BMP280;66444;49.680;18.538;2023-03-31T06:59:22;96651.8110339129;;;12.653510606382042
77385;BMP280;66444;49.680;18.538;2023-03-31T07:04:27;96648.35983943702;;;12.612832630705089
77385;BMP280;66444;49.680;18.538;2023-03-31T07:09:32;96646.47544727103;;;12.653510606382042
77385;BMP280;66444;49.680;18.538;2023-03-31T07:14:37;96643.4516170717;;;12.704357552109286
77385;BMP280;66444;49.680;18.538;2023-03-31T07:19:43;96639.62793724326;;;12.67893415200524
77385;BMP280;66444;49.680;18.538;2023-03-31T07:24:48;96639.67751256593;;;12.78571145455353
77385;BMP280;66444;49.680;18.538;2023-03-31T07:29:53;96621.4416789399;;;12.948414789093658
77385;BMP280;66444;49.680;18.538;2023-03-31T07:34:58;96623.0335189138;;;13.172122141765431
77385;BMP280;66444;49.680;18.538;2023-03-31T07:40:04;96613.92129085248;;;13.39581822543405
77385;BMP280;66444;49.680;18.538;2023-03-31T07:45:10;96600.96471040043;;;13.700840178737417
77385;BMP280;66444;49.680;18.538;2023-03-31T07:50:16;96590.25051493362;;;13.985508429305629
77385;BMP280;66444;49.680;18.538;2023-03-31T07:55:22;96592.50614611786;;;14.17866577487439
77385;BMP280;66444;49.680;18.538;2023-03-31T08:00:27;96568.77025151116;;;14.34131807293743
77385;BMP280;66444;49.680;18.538;2023-03-31T08:05:32;96567.5377588146;;;14.564955250453204
77385;BMP280;66444;49.680;18.538;2023-03-31T08:10:37;96564.8617547727;;;14.564955250453204
77385;BMP280;66444;49.680;18.538;2023-03-31T08:15:43;96555.6822883173;;;14.57512030894868
77385;BMP280;66444;49.680;18.538;2023-03-31T08:20:48;96545.35074316911;;;14.595450356090442
77385;BMP280;66444;49.680;18.538;2023-03-31T08:25:54;96540.4526485571;;;14.437890054751188
77385;BMP280;66444;49.680;18.538;2023-03-31T08:31:12;96542.03320878495;;;14.305738392053172
77385;BMP280;66444;49.680;18.538;2023-03-31T08:36:17;96539.37116399649;;;14.270158425951376
77385;BMP280;66444;49.680;18.538;2023-03-31T08:41:29;96522.92108562327;;;14.32098686164245
77385;BMP280;66444;49.680;18.538;2023-03-31T08:46:46;96515.15169855593;;;14.59036785303615
77385;BMP280;66444;49.680;18.538;2023-03-31T08:51:54;96515.44251727668;;;14.75300506367348
77385;BMP280;66444;49.680;18.538;2023-03-31T08:57:03;96510.82882835004;;;14.79366343501024
77385;BMP280;66444;49.680;18.538;2023-03-31T09:02:20;96487.44970957522;;;14.86989687718451
77385;BMP280;66444;49.680;18.538;2023-03-31T09:07:37;96484.24731140575;;;15.063015735847875
77385;BMP280;66444;49.680;18.538;2023-03-31T09:12:52;96480.23491811294;;;15.286616545217111
77385;BMP280;66444;49.680;18.538;2023-03-31T09:18:06;96470.76654234427;;;15.58134584883228
77385;BMP280;66444;49.680;18.538;2023-03-31T09:23:23;96475.29332302212;;;15.647403178876266
77385;BMP280;66444;49.680;18.538;2023-03-31T09:28:35;96459.73163155936;;;15.865893493127079
77385;BMP280;66444;49.680;18.538;2023-03-31T09:33:44;96453.21141516013;;;16.18090709266253
77385;BMP280;66444;49.680;18.538;2023-03-31T09:38:50;96450.8850110627;;;16.20122978235595
77385;BMP280;66444;49.680;18.538;2023-03-31T09:43:56;96443.28652199304;;;16.150422883499413
77385;BMP280;66444;49.680;18.538;2023-03-31T09:49:02;96438.37074645303;;;16.09961540256627
77385;BMP280;66444;49.680;18.538;2023-03-31T09:54:19;96439.70114646248;;;16.252036099135875
77385;BMP280;66444;49.680;18.538;2023-03-31T09:59:30;96442.18696052399;;;16.394290689472108
77385;BMP280;66444;49.680;18.538;2023-03-31T10:04:43;96431.34846168295;;;16.465416273334995
77385;BMP280;66444;49.680;18.538;2023-03-31T10:09:52;96429.50728142692;;;16.668625940801576
77385;BMP280;66444;49.680;18.538;2023-03-31T10:15:01;96420.75753095088;;;16.86166649851948
77385;BMP280;66444;49.680;18.538;2023-03-31T10:20:20;96412.98994547351;;;16.917545091267677
77385;BMP280;66444;49.680;18.538;2023-03-31T10:25:34;96408.82621826195;;;17.10549518894404
77385;BMP280;66444;49.680;18.538;2023-03-31T10:30:39;96404.27433780521;;;17.0750173360575
77385;BMP280;66444;49.680;18.538;2023-03-31T10:35:53;96399.374525914;;;17.02422044891864
77385;BMP280;66444;49.680;18.538;2023-03-31T10:41:01;96389.10183200215;;;16.973422979703173
77385;BMP280;66444;49.680;18.538;2023-03-31T10:46:08;96394.59737163871;;;16.902305544912814
77385;BMP280;66444;49.680;18.538;2023-03-31T10:51:19;96392.50122783102;;;16.78038728814572
77385;BMP280;66444;49.680;18.538;2023-03-31T10:56:32;96371.71554209456;;;16.821027079597116
77385;BMP280;66444;49.680;18.538;2023-03-31T11:01:49;96389.10183200215;;;16.973422979703173
77385;BMP280;66444;49.680;18.538;2023-03-31T11:07:28;96362.96132507994;;;16.78038728814572
77385;BMP280;66444;49.680;18.538;2023-03-31T11:12:55;96355.96362250685;;;16.607664018450304
77385;BMP280;66444;49.680;18.538;2023-03-31T11:18:09;96358.18061785644;;;16.658465678617357
77385;BMP280;66444;49.680;18.538;2023-03-31T11:23:35;96346.62233928939;;;16.68894639532082
77385;BMP280;66444;49.680;18.538;2023-03-31T11:28:50;96328.80919271433;;;16.785467282449826
77385;BMP280;66444;49.680;18.538;2023-03-31T11:34:16;96313.12858774385;;;16.968343200767414
77385;BMP280;66444;49.680;18.538;2023-03-31T11:39:44;96308.51411338849;;;16.973422979703173
77385;BMP280;66444;49.680;18.538;2023-03-31T11:45:02;96308.01951911052;;;16.82610702733509
77385;BMP280;66444;49.680;18.538;2023-03-31T11:50:20;96299.17588428843;;;16.622904577618463
77385;BMP280;66444;49.680;18.538;2023-03-31T11:55:30;96301.69505677607;;;16.495898317173122
77385;BMP280;66444;49.680;18.538;2023-03-31T12:00:43;96304.78826467783;;;16.480657321447506
77385;BMP280;66444;49.680;18.538;2023-03-31T12:05:52;96289.44207115215;;;16.485737659176813
77385;BMP280;66444;49.680;18.538;2023-03-31T12:11:15;96267.21143755184;;;16.480657321447506
77385;BMP280;66444;49.680;18.538;2023-03-31T12:16:31;96267.39444148073;;;16.373968884535135
77385;BMP280;66444;49.680;18.538;2023-03-31T12:21:42;96262.14718314662;;;16.302841833839192
77385;BMP280;66444;49.680;18.538;2023-03-31T12:27:01;96255.38262652364;;;16.221552378917114
77385;BMP280;66444;49.680;18.538;2023-03-31T12:32:15;96253.80751226831;;;16.24695549365133
77385;BMP280;66444;49.680;18.538;2023-03-31T12:37:29;96241.15050025248;;;16.252036099135875
77385;BMP280;66444;49.680;18.538;2023-03-31T12:43:05;96230.41842057978;;;16.252036099135875
77385;BMP280;66444;49.680;18.538;2023-03-31T12:48:39;96224.82360929578;;;16.16058430983685
77385;BMP280;66444;49.680;18.538;2023-03-31T12:54:00;96222.02434937294;;;15.997998694470152
77385;BMP280;66444;49.680;18.538;2023-03-31T12:59:21;96230.75236128063;;;15.804920534603298
77385;BMP280;66444;49.680;18.538;2023-03-31T13:04:35;96218.82685033456;;;15.58134584883228
77385;BMP280;66444;49.680;18.538;2023-03-31T13:09:43;96223.57781628864;;;15.469554280070588
77385;BMP280;66444;49.680;18.538;2023-03-31T13:14:50;96197.0330447061;;;15.561020318605006
77385;BMP280;66444;49.680;18.538;2023-03-31T13:20:15;96172.05329259903;;;16.094534622458742
77385;BMP280;66444;49.680;18.538;2023-03-31T13:25:38;96161.32916012155;;;17.247722398396583
77385;BMP280;66444;49.680;18.538;2023-03-31T13:30:49;96124.96710304909;;;18.811920512653888
77385;BMP280;66444;49.680;18.538;2023-03-31T13:36:09;96128.95274961418;;;19.14703398295678
77385;BMP280;66444;49.680;18.538;2023-03-31T13:42:22;96124.12639039558;;;18.29904626412317
77385;BMP280;66444;49.680;18.538;2023-03-31T13:47:50;96114.03468384362;;;18.05020469282754
77385;BMP280;66444;49.680;18.538;2023-03-31T13:53:22;96099.34827266027;;;17.481371478410438
77385;BMP280;66444;49.680;18.538;2023-03-31T14:00:52;96077.85619930737;;;17.156291144760324
77385;BMP280;66444;49.680;18.538;2023-03-31T14:06:18;96076.72325287835;;;16.44509479436092
77385;BMP280;66444;49.680;18.538;2023-03-31T14:11:29;96059.12390114232;;;16.23679426521994
77385;BMP280;66444;49.680;18.538;2023-03-31T14:16:36;96052.45391672017;;;16.11993846478872
77385;BMP280;66444;49.680;18.538;2023-03-31T14:21:45;96053.48503631818;;;16.18090709266253
77385;BMP280;66444;49.680;18.538;2023-03-31T14:27:01;96035.5340392434;;;16.150422883499413
77385;BMP280;66444;49.680;18.538;2023-03-31T14:32:17;96024.94486899613;;;16.079292247211562
77385;BMP280;66444;49.680;18.538;2023-03-31T14:37:34;96025.2001145361;;;16.333324995264412
77385;BMP280;66444;49.680;18.538;2023-03-31T14:42:40;96012.20539248612;;;17.003901531081645
77385;BMP280;66444;49.680;18.538;2023-03-31T14:47:55;95997.0109588647;;;17.552479623258115
77385;BMP280;66444;49.680;18.538;2023-03-31T14:53:02;95996.82247939892;;;17.623586627235635
77385;BMP280;66444;49.680;18.538;2023-03-31T14:58:09;95994.84005240485;;;17.501688207639383
77385;BMP280;66444;49.680;18.538;2023-03-31T15:03:19;95996.2562167045;;;17.547400507889687
77385;BMP280;66444;49.680;18.538;2023-03-31T15:08:24;95983.61090602963;;;17.389945044368506
77385;BMP280;66444;49.680;18.538;2023-03-31T15:13:32;95991.55750491036;;;16.973422979703173
77385;BMP280;66444;49.680;18.538;2023-03-31T15:18:39;95972.17235324107;;;16.89722568448633
77385;BMP280;66444;49.680;18.538;2023-03-31T15:23:46;95959.83889476575;;;16.760067252721637
77385;BMP280;66444;49.680;18.538;2023-03-31T15:28:55;95946.7477849088;;;16.617824397049844
77385;BMP280;66444;49.680;18.538;2023-03-31T15:34:13;95936.5118347239;;;16.567022271221504
77385;BMP280;66444;49.680;18.538;2023-03-31T15:39:23;95918.44819036472;;;17.765797212580217
77385;BMP280;66444;49.680;18.538;2023-03-31T15:44:36;95899.53872733242;;;18.05528323194012
77385;BMP280;66444;49.680;18.538;2023-03-31T15:49:47;95902.22683235696;;;17.095335927931593
77385;BMP280;66444;49.680;18.538;2023-03-31T15:54:55;95889.5411137629;;;16.485737659176813
77385;BMP280;66444;49.680;18.538;2023-03-31T16:00:02;95875.1123461583;;;16.587343191402034
77385;BMP280;66444;49.680;18.538;2023-03-31T16:05:20;95858.16591081709;;;16.617824397049844
77385;BMP280;66444;49.680;18.538;2023-03-31T16:10:36;95868.90732298885;;;16.292680733464657
77385;BMP280;66444;49.680;18.538;2023-03-31T16:15:43;95874.98499254943;;;15.972594153648242
77385;BMP280;66444;49.680;18.538;2023-03-31T16:20:59;95884.37706098742;;;15.693134600343182
77385;BMP280;66444;49.680;18.538;2023-03-31T16:26:08;95879.85206571216;;;15.464472778188064
77385;BMP280;66444;49.680;18.538;2023-03-31T16:31:26;95876.34324136986;;;15.296779950615019
77385;BMP280;66444;49.680;18.538;2023-03-31T16:36:33;95863.68932684265;;;15.103671266650782
77385;BMP280;66444;49.680;18.538;2023-03-31T16:41:39;95855.37459937345;;;15.047769815754146
77385;BMP280;66444;49.680;18.538;2023-03-31T16:46:45;95857.07539067238;;;14.951211105287076
77385;BMP280;66444;49.680;18.538;2023-03-31T16:51:51;95841.26145238461;;;14.808910228218883
77385;BMP280;66444;49.680;18.538;2023-03-31T16:56:56;95835.21370444154;;;14.768251996580512
77385;BMP280;66444;49.680;18.538;2023-03-31T17:02:02;95841.09343718845;;;14.681852017436176
77385;BMP280;66444;49.680;18.538;2023-03-31T17:07:08;95840.80332390225;;;14.625945252180099
77385;BMP280;66444;49.680;18.538;2023-03-31T17:12:14;95834.98571490518;;;14.676769613334908
77385;BMP280;66444;49.680;18.538;2023-03-31T17:17:19;95827.36610524716;;;14.66152236610651
77385;BMP280;66444;49.680;18.538;2023-03-31T17:22:25;95845.3401966908;;;14.656439938722178
77385;BMP280;66444;49.680;18.538;2023-03-31T17:27:36;95826.14466210692;;;14.473468676256015
77385;BMP280;66444;49.680;18.538;2023-03-31T17:32:47;95829.25508379767;;;14.188831718126313
77385;BMP280;66444;49.680;18.538;2023-03-31T17:37:52;95825.72667455231;;;13.985508429305629
77385;BMP280;66444;49.680;18.538;2023-03-31T17:43:03;95825.82441012477;;;13.914343077968805
77385;BMP280;66444;49.680;18.538;2023-03-31T17:48:09;95835.80507698609;;;13.873676650691777
77385;BMP280;66444;49.680;18.538;2023-03-31T17:53:14;95821.2360395143;;;13.919426355184987
77385;BMP280;66444;49.680;18.538;2023-03-31T17:58:20;95815.79197527314;;;13.990591625031083
77385;BMP280;66444;49.680;18.538;2023-03-31T18:03:26;95808.88284027284;;;14.016007516346871
77385;BMP280;66444;49.680;18.538;2023-03-31T18:08:33;95815.84176295571;;;13.955009132716805
77385;BMP280;66444;49.680;18.538;2023-03-31T18:13:39;95830.71844533076;;;13.965175588196143
77385;BMP280;66444;49.680;18.538;2023-03-31T18:18:45;95826.43356564955;;;14.026173832127824
77385;BMP280;66444;49.680;18.538;2023-03-31T18:23:51;95803.88953923367;;;14.036340124625713
77385;BMP280;66444;49.680;18.538;2023-03-31T18:28:57;95803.43361977523;;;14.087171237869189
77385;BMP280;66444;49.680;18.538;2023-03-31T18:34:03;95798.79060244183;;;14.12783570936881
77385;BMP280;66444;49.680;18.538;2023-03-31T18:39:13;95800.19565401631;;;14.209163534780965
77385;BMP280;66444;49.680;18.538;2023-03-31T18:44:19;95814.2669560037;;;14.249826888693496
77385;BMP280;66444;49.680;18.538;2023-03-31T18:49:25;95827.52904185042;;;14.32098686164245
77385;BMP280;66444;49.680;18.538;2023-03-31T18:54:36;95844.73601732633;;;14.310821221070364
77385;BMP280;66444;49.680;18.538;2023-03-31T18:59:47;95919.80593281711;;;13.863509985664859
77385;BMP280;66444;49.680;18.538;2023-03-31T19:04:52;95876.00469300804;;;12.602663078578189
77385;BMP280;66444;49.680;18.538;2023-03-31T19:09:58;95925.58276166127;;;11.595762166846544
77385;BMP280;66444;49.680;18.538;2023-03-31T19:15:04;95938.1407496453;;;10.700547561142594
77385;BMP280;66444;49.680;18.538;2023-03-31T19:20:12;95943.2162609856;;;9.988316278532148
77385;BMP280;66444;49.680;18.538;2023-03-31T19:25:19;95946.80061512066;;;9.621981480531394
77385;BMP280;66444;49.680;18.538;2023-03-31T19:30:24;95943.26359811473;;;9.438802765961736
77385;BMP280;66444;49.680;18.538;2023-03-31T19:35:30;95959.46789789015;;;9.316679431963712
77385;BMP280;66444;49.680;18.538;2023-03-31T19:40:36;95950.26581536606;;;9.184375369967892
77385;BMP280;66444;49.680;18.538;2023-03-31T19:45:43;95885.43320283144;;;9.123310629604385
77385;BMP280;66444;49.680;18.538;2023-03-31T19:50:49;95882.01990306882;;;9.118221863405779
77385;BMP280;66444;49.680;18.538;2023-03-31T19:55:57;95882.01990306882;;;9.118221863405779
77385;BMP280;66444;49.680;18.538;2023-03-31T20:01:08;95879.00066434877;;;9.133488144539296
77385;BMP280;66444;49.680;18.538;2023-03-31T20:06:22;95862.3535603491;;;9.164020549645647
77385;BMP280;66444;49.680;18.538;2023-03-31T20:11:32;95868.44384359237;;;9.204730097157881
77385;BMP280;66444;49.680;18.538;2023-03-31T20:16:40;95870.75212665595;;;9.255616507679225
77385;BMP280;66444;49.680;18.538;2023-03-31T20:21:50;95881.43348866135;;;9.362476075114682
77385;BMP280;66444;49.680;18.538;2023-03-31T20:26:59;95900.85745676885;;;9.510039829136804
77385;BMP280;66444;49.680;18.538;2023-03-31T20:32:13;95914.21216815477;;;9.652510532876477
77385;BMP280;66444;49.680;18.538;2023-03-31T20:37:21;95921.86488762485;;;9.774624646781012
77385;BMP280;66444;49.680;18.538;2023-03-31T20:42:35;95922.64519033584;;;9.815328606357799
77385;BMP280;66444;49.680;18.538;2023-03-31T20:47:43;95924.20401945665;;;9.896735407924279
77385;BMP280;66444;49.680;18.538;2023-03-31T20:52:52;95921.15943087467;;;9.876383847231045
77385;BMP280;66444;49.680;18.538;2023-03-31T20:58:01;95904.09574797167;;;9.886559639219195
77385;BMP280;66444;49.680;18.538;2023-03-31T21:03:09;95892.34187911639;;;9.896735407924279
77385;BMP280;66444;49.680;18.538;2023-03-31T21:08:22;95893.08670241013;;;9.866208031959832
77385;BMP280;66444;49.680;18.538;2023-03-31T21:13:31;95898.39677210533;;;9.866208031959832
77385;BMP280;66444;49.680;18.538;2023-03-31T21:18:39;95909.016940706;;;9.866208031959832
77385;BMP280;66444;49.680;18.538;2023-03-31T21:23:48;95905.2288617351;;;9.876383847231045
77385;BMP280;66444;49.680;18.538;2023-03-31T21:28:57;95914.32703961148;;;9.866208031959832
77385;BMP280;66444;49.680;18.538;2023-03-31T21:34:06;95905.97276204076;;;9.84585633156821
77385;BMP280;66444;49.680;18.538;2023-03-31T21:39:15;95909.760510869;;;9.835680446447805
77385;BMP280;66444;49.680;18.538;2023-03-31T21:44:23;95916.61033024851;;;9.881471746135503
77385;BMP280;66444;49.680;18.538;2023-03-31T21:49:32;95930.27560767377;;;9.901823283545673
77385;BMP280;66444;49.680;18.538;2023-03-31T21:54:40;95934.08162389233;;;9.927262574341148
77385;BMP280;66444;49.680;18.538;2023-03-31T21:59:48;95923.4772141997;;;9.962877336982638
77385;BMP280;66444;49.680;18.538;2023-03-31T22:04:57;95918.92730338992;;;9.967965136934072
77385;BMP280;66444;49.680;18.538;2023-03-31T22:10:06;95913.61631586666;;;9.967965136934072
77385;BMP280;66444;49.680;18.538;2023-03-31T22:15:15;95921.97148699113;;;9.988316278532148
77385;BMP280;66444;49.680;18.538;2023-03-31T22:20:24;95925.77676015176;;;10.013755074562505
77385;BMP280;66444;49.680;18.538;2023-03-31T22:25:32;95940.9498124055;;;10.008667326997966
77385;BMP280;66444;49.680;18.538;2023-03-31T22:30:41;95923.52475016782;;;10.069719913601876
77385;BMP280;66444;49.680;18.538;2023-03-31T22:35:50;95917.46643745799;;;10.10024589258246